createdAt,value
2023-02-15T00:03:06.497Z,65551.25
2023-02-15T00:08:12.295Z,65708.41
2023-02-15T00:13:16.866Z,65619.25
2023-02-15T00:18:21.284Z,65536.75
2023-02-15T00:23:29.212Z,65651.81
2023-02-15T00:28:34.177Z,65585.00
2023-02-15T00:33:39.662Z,65630.38
2023-02-15T00:38:46.191Z,65664.19
2023-02-15T00:43:50.872Z,65773.63
2023-02-15T00:48:55.489Z,65650.19
2023-02-15T00:54:02.719Z,65633.66
2023-02-15T00:59:07.797Z,65582.00
2023-02-15T01:04:12.193Z,65698.88
2023-02-15T01:09:18.137Z,65765.63
2023-02-15T01:14:22.234Z,65663.75
2023-02-15T01:19:27.529Z,65540.84
2023-02-15T01:24:33.778Z,65680.91
2023-02-15T01:29:41.520Z,65746.94
2023-02-15T01:34:46.550Z,65634.19
2023-02-15T01:39:52.706Z,65497.56
2023-02-15T01:44:58.807Z,65626.91
2023-02-15T01:50:11.210Z,65627.97
2023-02-15T01:55:18.074Z,65562.69
2023-02-15T02:00:24.173Z,65665.25
2023-02-15T02:05:28.925Z,65801.97
2023-02-15T02:10:34.968Z,65660.53
2023-02-15T02:15:46.918Z,65646.03
2023-02-15T02:21:38.451Z,65691.50
2023-02-15T02:27:18.276Z,65731.00
2023-02-15T02:33:03.771Z,65736.78
2023-02-15T02:38:14.264Z,65703.03
2023-02-15T02:43:41.810Z,65661.06
2023-02-15T02:48:51.280Z,65682.44
2023-02-15T02:54:03.783Z,65581.38
2023-02-15T02:59:15.361Z,65672.09
2023-02-15T03:04:25.889Z,65596.94
2023-02-15T03:09:42.642Z,65715.31
2023-02-15T03:14:52.018Z,65785.53
2023-02-15T03:20:02.931Z,65720.69
2023-02-15T03:25:17.455Z,65724.59
2023-02-15T03:30:25.482Z,65629.91
2023-02-15T03:35:40.362Z,65709.09
2023-02-15T03:41:05.699Z,65744.69
2023-02-15T03:46:20.489Z,65696.63
2023-02-15T03:51:39.210Z,65654.56
2023-02-15T03:57:05.332Z,65563.34
2023-02-15T04:02:14.366Z,65559.19
2023-02-15T04:07:20.316Z,65704.31
2023-02-15T04:12:24.457Z,65758.78
2023-02-15T04:17:30.004Z,65722.44
2023-02-15T04:22:53.585Z,65760.91
2023-02-15T04:27:59.875Z,65661.50
2023-02-15T04:33:05.397Z,65652.88
2023-02-15T04:38:11.224Z,65626.38
2023-02-15T04:43:15.715Z,65741.16
2023-02-15T04:48:20.512Z,65671.09
2023-02-15T04:53:27.971Z,65706.78
2023-02-15T04:58:32.865Z,65764.03
2023-02-15T05:03:37.364Z,65768.84
2023-02-15T05:08:43.337Z,65611.88
2023-02-15T05:13:48.237Z,65619.25
2023-02-15T05:18:53.683Z,65676.53
2023-02-15T05:23:59.767Z,65564.50
2023-02-15T05:29:04.276Z,65538.25
2023-02-15T05:34:08.940Z,65673.16
2023-02-15T05:39:17.864Z,65716.06
2023-02-15T05:44:26.916Z,65740.84
2023-02-15T05:49:32.475Z,65709.03
2023-02-15T05:54:38.332Z,65725.66
2023-02-15T05:59:43.258Z,65748.63
2023-02-15T06:04:47.664Z,65639.09
2023-02-15T06:09:53.560Z,65574.53
2023-02-15T06:14:58.099Z,65725.47
2023-02-15T06:20:02.607Z,65768.31
2023-02-15T06:25:11.144Z,65691.50
2023-02-15T06:30:16.595Z,65766.34
2023-02-15T06:35:22.036Z,65799.84
2023-02-15T06:40:27.935Z,65788.41
2023-02-15T06:45:32.119Z,65770.00
2023-02-15T06:50:37.170Z,65795.56
2023-02-15T06:55:43.262Z,65821.84
2023-02-15T07:00:47.643Z,65719.06
2023-02-15T07:05:57.193Z,65808.94
2023-02-15T07:11:17.439Z,65863.97
2023-02-15T07:16:22.292Z,65813.81
2023-02-15T07:21:26.908Z,65777.38
2023-02-15T07:26:33.964Z,65802.44
2023-02-15T07:31:38.590Z,65742.56
2023-02-15T07:36:45.163Z,65788.19
2023-02-15T07:41:51.145Z,65886.44
2023-02-15T07:46:56.580Z,65774.25
2023-02-15T07:52:03.441Z,65662.03
2023-02-15T07:57:09.746Z,65719.25
2023-02-15T08:02:14.338Z,65835.34
2023-02-15T08:07:19.165Z,65800.47
2023-02-15T08:12:25.141Z,65811.69
2023-02-15T08:17:29.809Z,65758.78
2023-02-15T08:22:34.289Z,65901.50
2023-02-15T08:27:40.200Z,65971.47
2023-02-15T08:32:44.522Z,65898.72
2023-02-15T08:37:48.947Z,65897.66
2023-02-15T08:42:54.879Z,65938.94
2023-02-15T08:47:58.974Z,65873.59
2023-02-15T08:53:04.870Z,65907.72
2023-02-15T08:58:11.259Z,65806.25
2023-02-15T09:03:16.175Z,65983.25
2023-02-15T09:08:21.236Z,65955.97
2023-02-15T09:13:27.354Z,65896.16
2023-02-15T09:18:33.254Z,65961.75
2023-02-15T09:23:37.630Z,65922.28
2023-02-15T09:28:44.873Z,65893.38
2023-02-15T09:33:52.960Z,65946.34
2023-02-15T09:38:59.769Z,65917.53
2023-02-15T09:44:16.790Z,65819.19
2023-02-15T09:49:33.502Z,66033.38
2023-02-15T09:55:09.093Z,65960.69
2023-02-15T10:00:24.362Z,65965.59
2023-02-15T10:05:40.397Z,65833.06
2023-02-15T10:10:48.500Z,65845.34
2023-02-15T10:16:09.061Z,65948.47
2023-02-15T10:21:23.244Z,66009.47
2023-02-15T10:26:33.384Z,66012.16
2023-02-15T10:31:49.881Z,65914.25
2023-02-15T10:37:14.222Z,65819.63
2023-02-15T10:42:28.711Z,65884.75
2023-02-15T10:47:48.552Z,65830.41
2023-02-15T10:53:06.823Z,65921.91
2023-02-15T10:58:19.510Z,65900.31
2023-02-15T11:03:46.438Z,65973.53
2023-02-15T11:08:56.303Z,65941.63
2023-02-15T11:14:04.961Z,66084.34
2023-02-15T11:19:16.650Z,65890.16
2023-02-15T11:24:22.781Z,66105.25
2023-02-15T11:29:33.702Z,66000.47
2023-02-15T11:34:50.745Z,66081.69
2023-02-15T11:39:58.288Z,66134.72
2023-02-15T11:45:11.164Z,66156.75
2023-02-15T11:56:05.179Z,66091.75
2023-02-15T12:01:17.738Z,66042.66
2023-02-15T12:06:27.604Z,66160.59
2023-02-15T12:11:39.394Z,66319.22
2023-02-15T12:16:47.427Z,66505.59
2023-02-15T12:21:55.203Z,66512.59
2023-02-15T12:27:03.093Z,66558.81
2023-02-15T12:32:12.332Z,66618.50
2023-02-15T12:37:25.076Z,66734.22
2023-02-15T12:42:43.075Z,66816.91
2023-02-15T12:47:49.042Z,66642.78
2023-02-15T12:53:09.781Z,66692.78
2023-02-15T12:58:19.725Z,66543.75
2023-02-15T13:03:27.114Z,66792.28
2023-02-15T13:08:35.779Z,66718.38
2023-02-15T13:13:53.035Z,66655.81
2023-02-15T13:18:57.477Z,66729.75
2023-02-15T13:24:07.600Z,66628.16
2023-02-15T13:29:20.838Z,66544.38
2023-02-15T13:34:28.522Z,66589.38
2023-02-15T13:39:41.352Z,66678.25
2023-02-15T13:45:16.843Z,66553.81
2023-02-15T13:50:36.073Z,66531.25
2023-02-15T13:55:46.459Z,66563.03
2023-02-15T14:01:03.508Z,66533.00
2023-02-15T14:06:39.070Z,66586.84
2023-02-15T14:11:53.973Z,66566.88
2023-02-15T14:17:07.408Z,66540.53
2023-02-15T14:22:22.849Z,66588.38
2023-02-15T14:27:43.921Z,66460.41
2023-02-15T14:32:50.888Z,66474.00
2023-02-15T14:38:02.454Z,66539.75
2023-02-15T14:43:14.071Z,66495.41
2023-02-15T14:48:26.998Z,66415.47
2023-02-15T14:53:39.710Z,66515.75
2023-02-15T14:59:01.520Z,66502.38
2023-02-15T15:04:09.897Z,66515.66
2023-02-15T15:09:21.526Z,66428.72
2023-02-15T15:14:44.258Z,66386.47
2023-02-15T15:20:14.717Z,66357.41
2023-02-15T15:25:53.795Z,66355.88
2023-02-15T15:31:04.159Z,66321.44
2023-02-15T15:36:30.481Z,66255.41
2023-02-15T15:41:43.877Z,66105.41
2023-02-15T15:47:16.961Z,66055.97
2023-02-15T15:52:23.739Z,66039.97
2023-02-15T15:57:31.469Z,65966.66
2023-02-15T16:02:37.284Z,65926.47
2023-02-15T16:07:43.581Z,65924.31
2023-02-15T16:12:51.381Z,65885.28
2023-02-15T16:17:59.522Z,65880.66
2023-02-15T16:23:28.427Z,65923.97
2023-02-15T16:28:32.849Z,65943.75
2023-02-15T16:33:40.722Z,65964.53
2023-02-15T16:39:09.801Z,65940.44
2023-02-15T16:44:19.662Z,65943.66
2023-02-15T16:49:28.389Z,65923.34
2023-02-15T16:54:33.573Z,65942.25
2023-02-15T16:59:43.339Z,65934.56
2023-02-15T17:05:08.485Z,65901.75
2023-02-15T17:10:29.113Z,65899.91
2023-02-15T17:15:36.267Z,65891.25
2023-02-15T17:20:44.665Z,65895.06
2023-02-15T17:25:50.644Z,65806.69
2023-02-15T17:30:56.763Z,65859.06
2023-02-15T17:36:09.917Z,65770.88
2023-02-15T17:41:14.406Z,65806.78
2023-02-15T17:46:22.844Z,65819.09
2023-02-15T17:51:29.356Z,65815.88
2023-02-15T17:56:34.105Z,65813.19
2023-02-15T18:02:10.258Z,65767.34
2023-02-15T18:07:41.048Z,65753.25
2023-02-15T18:12:54.015Z,65782.19
2023-02-15T18:18:06.248Z,65740.97
2023-02-15T18:23:14.310Z,65678.16
2023-02-15T18:28:18.847Z,65609.19
2023-02-15T18:33:34.395Z,65657.78
2023-02-15T18:38:40.687Z,65591.50
2023-02-15T18:43:45.109Z,65601.84
2023-02-15T18:48:50.011Z,65606.44
2023-02-15T18:53:56.117Z,65619.88
2023-02-15T18:59:00.531Z,65646.91
2023-02-15T19:04:04.935Z,65589.03
2023-02-15T19:09:15.994Z,65643.91
2023-02-15T19:14:28.855Z,65500.97
2023-02-15T19:19:33.464Z,65576.22
2023-02-15T19:24:42.296Z,65543.94
2023-02-15T19:29:46.855Z,65626.72
2023-02-15T19:34:51.288Z,65648.16
2023-02-15T19:39:57.320Z,65586.50
2023-02-15T19:45:02.733Z,65519.72
2023-02-15T19:50:08.287Z,65465.66
2023-02-15T19:55:23.448Z,65513.66
2023-02-15T20:00:30.050Z,65584.03
2023-02-15T20:05:38.501Z,65607.16
2023-02-15T20:10:45.504Z,65638.03
2023-02-15T20:15:50.910Z,65648.50
2023-02-15T20:20:56.704Z,65570.16
2023-02-15T20:26:08.439Z,65583.69
2023-02-15T20:31:16.671Z,65512.69
2023-02-15T20:36:23.218Z,65553.75
2023-02-15T20:41:39.216Z,65502.47
2023-02-15T20:46:43.780Z,65562.06
2023-02-15T20:51:48.494Z,65517.38
2023-02-15T20:56:55.359Z,65547.78
2023-02-15T21:02:02.368Z,65518.66
2023-02-15T21:07:06.898Z,65487.97
2023-02-15T21:12:15.299Z,65487.53
2023-02-15T21:17:19.653Z,65523.88
2023-02-15T21:22:24.894Z,65486.91
2023-02-15T21:27:30.647Z,65486.66
2023-02-15T21:32:35.783Z,65414.22
2023-02-15T21:37:41.906Z,65458.75
2023-02-15T21:43:05.008Z,65431.69
2023-02-15T21:48:09.455Z,65473.13
2023-02-15T21:53:17.991Z,65483.47
2023-02-15T21:58:26.358Z,65405.16
2023-02-15T22:03:34.396Z,65450.41
2023-02-15T22:08:38.905Z,65499.78
2023-02-15T22:13:46.062Z,65428.47
2023-02-15T22:18:51.159Z,65406.66
2023-02-15T22:23:55.531Z,65439.56
2023-02-15T22:29:01.606Z,65439.03
2023-02-15T22:34:06.312Z,65474.09
2023-02-15T22:39:11.320Z,65522.91
2023-02-15T22:44:21.337Z,65446.69
2023-02-15T22:49:25.771Z,65514.81
2023-02-15T22:54:30.182Z,65473.13
2023-02-15T22:59:36.349Z,65421.03
2023-02-15T23:04:40.697Z,65431.47
2023-02-15T23:09:45.387Z,65468.53
2023-02-15T23:14:51.614Z,65490.81
2023-02-15T23:19:56.144Z,65504.16
2023-02-15T23:25:00.412Z,65533.47
2023-02-15T23:30:13.626Z,65487.53
2023-02-15T23:35:19.927Z,65446.69
2023-02-15T23:40:41.663Z,65507.34
2023-02-15T23:45:47.927Z,65517.38
2023-02-15T23:50:52.017Z,65516.22
2023-02-15T23:55:57.909Z,65535.16
